Time;durP1;ratioP1;P1;durP2;ratioP2;P2;SDS_P1;SDS_P2;PMS_P1;PMS_P2;Temp;Humidity;BMP_temperature;BMP_pressure;BME280_temperature;BME280_humidity;BME280_pressure;Samples;Min_cycle;Max_cycle;Signal;HPM_P1;HPM_P2
2021/09/10 00:02:42;;;;;;;11.18;9.65;;;;;;;19.86;86.04;100230.81;5059466;28;20133;-72
2021/09/10 00:05:25;;;;;;;10.43;9.07;;;;;;;19.86;87.80;100230.81;5073884;28;20403;-72
2021/09/10 00:08:09;;;;;;;12.77;9.85;;;;;;;19.81;88.19;100230.63;5074671;28;20048;-71
2021/09/10 00:10:53;;;;;;;11.23;9.65;;;;;;;19.75;89.31;100228.72;5059508;28;20098;-72
2021/09/10 00:13:37;;;;;;;12.68;10.25;;;;;;;19.71;90.17;100235.59;5073547;28;20135;-71
2021/09/10 00:16:21;;;;;;;12.57;9.73;;;;;;;19.69;90.88;100234.97;5073185;28;20166;-71
2021/09/10 00:19:05;;;;;;;13.90;9.68;;;;;;;19.64;90.48;100237.44;5073404;28;20476;-72
2021/09/10 00:21:49;;;;;;;11.55;9.60;;;;;;;19.65;94.64;100241.78;5087699;28;20054;-72
2021/09/10 00:24:33;;;;;;;12.93;10.15;;;;;;;19.59;93.13;100240.72;5073276;28;20174;-72
2021/09/10 00:27:17;;;;;;;15.60;10.38;;;;;;;19.56;96.68;100243.00;5074468;28;20461;-72
2021/09/10 00:30:05;;;;;;;11.30;10.07;;;;;;;19.54;95.31;100236.97;5073249;28;20094;-72
2021/09/10 00:32:49;;;;;;;12.45;10.27;;;;;;;19.57;98.71;100244.66;5072732;28;20423;-71
2021/09/10 00:35:33;;;;;;;11.52;9.57;;;;;;;19.56;95.59;100240.31;5058733;28;20414;-72
2021/09/10 00:38:17;;;;;;;13.15;10.23;;;;;;;19.58;98.15;100249.88;5072848;28;20052;-72
2021/09/10 00:41:02;;;;;;;11.32;10.20;;;;;;;19.57;96.60;100252.78;5073043;28;20055;-72
2021/09/10 00:43:46;;;;;;;14.02;9.95;;;;;;;19.55;99.76;100249.44;5072809;28;20059;-69
2021/09/10 00:46:30;;;;;;;14.95;10.27;;;;;;;19.58;99.66;100251.78;5058540;28;20113;-71
2021/09/10 00:49:14;;;;;;;13.52;10.85;;;;;;;19.54;99.84;100248.63;5059095;28;20463;-71
2021/09/10 00:51:58;;;;;;;16.33;10.93;;;;;;;19.56;97.80;100259.22;5058756;28;20093;-70
2021/09/10 00:54:42;;;;;;;11.32;10.13;;;;;;;19.51;99.06;100256.31;5072800;28;20127;-72
2021/09/10 00:57:26;;;;;;;11.45;10.05;;;;;;;19.48;100.00;100248.63;5058653;28;20055;-71
2021/09/10 01:00:11;;;;;;;13.23;10.48;;;;;;;19.45;100.00;100246.28;5072993;28;20047;-72
2021/09/10 01:02:55;;;;;;;16.88;11.25;;;;;;;19.44;100.00;100244.63;5072331;28;20047;-72
2021/09/10 01:05:43;;;;;;;12.90;10.77;;;;;;;19.41;100.00;100247.75;5072844;28;20576;-71
2021/09/10 01:08:28;;;;;;;14.63;11.23;;;;;;;19.34;100.00;100245.00;5058409;28;20055;-72
2021/09/10 01:11:14;;;;;;;13.95;10.35;;;;;;;19.32;100.00;100246.25;5058415;28;20054;-72
2021/09/10 01:13:58;;;;;;;15.55;11.10;;;;;;;19.30;100.00;100251.00;5072571;28;20128;-72
2021/09/10 01:16:44;;;;;;;12.77;10.23;;;;;;;19.23;100.00;100240.19;5072470;28;20498;-72
2021/09/10 01:19:31;;;;;;;12.88;10.77;;;;;;;19.17;100.00;100238.22;5072198;28;20415;-72
2021/09/10 01:22:15;;;;;;;13.55;10.70;;;;;;;19.12;100.00;100242.56;5072519;28;20078;-70
2021/09/10 01:25:10;;;;;;;12.32;10.75;;;;;;;19.06;100.00;100241.50;5072487;28;20481;-72
2021/09/10 01:27:57;;;;;;;13.63;10.27;;;;;;;19.01;100.00;100240.41;5072325;28;20080;-72
2021/09/10 01:30:41;;;;;;;14.45;10.50;;;;;;;18.98;100.00;100244.34;5058203;28;20136;-72
2021/09/10 01:33:25;;;;;;;15.38;11.00;;;;;;;18.92;100.00;100247.00;5058094;28;20101;-71
2021/09/10 01:36:14;;;;;;;12.55;11.10;;;;;;;18.89;100.00;100240.13;5058143;28;20048;-72
2021/09/10 01:38:58;;;;;;;14.93;10.48;;;;;;;18.75;100.00;100246.47;5073319;28;20047;-72
2021/09/10 01:41:42;;;;;;;11.82;10.63;;;;;;;18.75;100.00;100241.09;5072035;28;20083;-72
2021/09/10 01:44:26;;;;;;;12.43;9.55;;;;;;;18.72;100.00;100237.94;5072288;28;20047;-72
2021/09/10 01:47:09;;;;;;;12.55;11.30;;;;;;;18.70;100.00;100231.91;5072289;28;20056;-72
2021/09/10 01:49:53;;;;;;;14.38;10.18;;;;;;;18.66;100.00;100231.47;5058035;28;20047;-72
2021/09/10 01:52:38;;;;;;;13.65;10.30;;;;;;;18.64;100.00;100241.63;5073655;28;20089;-72
2021/09/10 01:55:22;;;;;;;11.90;10.52;;;;;;;18.63;100.00;100245.34;5057868;28;20044;-72
2021/09/10 01:58:06;;;;;;;11.80;10.52;;;;;;;18.60;100.00;100242.22;5072140;28;20047;-72
2021/09/10 02:00:50;;;;;;;12.07;10.40;;;;;;;18.59;100.00;100241.38;5072140;28;20075;-70
2021/09/10 02:03:34;;;;;;;;;;;;;;;18.58;100.00;100241.59;5072508;28;20044;-72
2021/09/10 02:06:18;;;;;;;12.70;10.50;;;;;;;18.55;100.00;100241.94;5086298;28;19919;-72
2021/09/10 02:09:03;;;;;;;14.88;10.57;;;;;;;18.52;100.00;100231.56;5072030;28;20509;-72
2021/09/10 02:11:46;;;;;;;12.27;10.95;;;;;;;18.46;100.00;100235.88;5071621;28;20067;-72
2021/09/10 02:14:31;;;;;;;12.25;10.80;;;;;;;18.43;100.00;100236.28;5071741;28;20047;-72
2021/09/10 02:17:15;;;;;;;12.00;10.75;;;;;;;18.43;100.00;100232.72;5075433;28;20089;-72
2021/09/10 02:19:59;;;;;;;13.07;10.85;;;;;;;18.42;100.00;100238.34;5061603;28;20079;-72
2021/09/10 02:22:44;;;;;;;13.98;11.02;;;;;;;18.42;100.00;100247.25;5075188;28;20066;-72
2021/09/10 02:25:27;;;;;;;12.38;10.98;;;;;;;18.48;100.00;100232.97;5075620;28;20043;-72
2021/09/10 02:28:11;;;;;;;;;;;;;;;18.42;100.00;100239.16;5061899;28;20051;-72
2021/09/10 02:30:55;;;;;;;14.68;10.57;;;;;;;18.43;100.00;100240.81;5076460;28;19918;-72
2021/09/10 02:33:40;;;;;;;12.02;10.73;;;;;;;18.42;100.00;100246.44;5075412;28;20094;-72
2021/09/10 02:36:24;;;;;;;11.40;10.18;;;;;;;18.41;100.00;100242.88;5075425;28;20521;-71
2021/09/10 02:39:11;;;;;;;13.85;10.60;;;;;;;18.42;100.00;100240.00;5075563;28;20055;-72
2021/09/10 02:41:55;;;;;;;12.27;10.45;;;;;;;18.44;100.00;100237.09;5074836;28;20059;-71
2021/09/10 02:44:38;;;;;;;14.00;10.60;;;;;;;18.47;100.00;100250.22;5061323;28;20449;-72
2021/09/10 02:47:22;;;;;;;11.65;10.43;;;;;;;18.46;100.00;100232.34;5075225;28;20094;-72
2021/09/10 02:50:07;;;;;;;12.18;10.82;;;;;;;18.48;100.00;100233.81;5075434;28;20094;-71
2021/09/10 02:52:51;;;;;;;13.13;10.35;;;;;;;18.50;100.00;100236.31;5075092;28;20091;-72
2021/09/10 02:55:35;;;;;;;12.77;10.55;;;;;;;18.48;100.00;100238.38;5075084;28;20402;-72
2021/09/10 02:58:19;;;;;;;12.23;10.20;;;;;;;18.47;100.00;100242.94;5075024;28;20074;-72
2021/09/10 03:01:03;;;;;;;15.95;10.80;;;;;;;18.51;100.00;100237.97;5075038;28;20407;-70
2021/09/10 03:03:46;;;;;;;13.57;11.27;;;;;;;18.50;100.00;100237.16;5074934;28;20115;-72
2021/09/10 03:06:30;;;;;;;14.80;11.13;;;;;;;18.48;100.00;100239.19;5060716;28;20121;-72
2021/09/10 03:09:14;;;;;;;16.23;11.70;;;;;;;18.57;100.00;100232.63;5074780;28;20418;-72
2021/09/10 03:11:58;;;;;;;12.05;10.82;;;;;;;18.55;100.00;100229.28;5074724;28;20093;-72
2021/09/10 03:14:42;;;;;;;13.13;11.50;;;;;;;18.58;100.00;100225.38;5060258;28;20414;-72
2021/09/10 03:17:26;;;;;;;15.60;10.98;;;;;;;18.58;100.00;100230.78;5074655;28;20047;-72
2021/09/10 03:20:11;;;;;;;12.63;10.90;;;;;;;18.58;100.00;100228.91;5074692;28;20082;-71
2021/09/10 03:22:55;;;;;;;13.85;10.60;;;;;;;18.59;100.00;100219.75;5060181;28;20079;-72
2021/09/10 03:25:39;;;;;;;11.02;9.93;;;;;;;18.61;100.00;100214.19;5074605;28;20043;-72
2021/09/10 03:28:23;;;;;;;11.85;10.45;;;;;;;18.60;100.00;100213.38;5074511;28;20047;-72
2021/09/10 03:31:07;;;;;;;18.08;11.25;;;;;;;18.60;100.00;100212.50;5074271;28;20055;-72
2021/09/10 03:33:51;;;;;;;13.48;10.90;;;;;;;18.60;100.00;100205.25;5083239;23;20414;-69
2021/09/10 03:36:35;;;;;;;13.75;10.40;;;;;;;18.62;100.00;100207.75;5074289;28;20052;-69
2021/09/10 03:39:19;;;;;;;12.30;11.00;;;;;;;18.60;100.00;100201.72;5073993;28;20140;-70
2021/09/10 03:42:03;;;;;;;15.63;11.75;;;;;;;18.58;100.00;100209.19;5088052;28;20055;-69
2021/09/10 03:44:48;;;;;;;12.75;11.27;;;;;;;18.57;100.00;100202.13;5060024;28;20510;-69
2021/09/10 03:47:32;;;;;;;16.90;11.30;;;;;;;18.56;100.00;100203.16;5074040;28;20055;-69
2021/09/10 03:50:16;;;;;;;11.45;10.07;;;;;;;18.54;100.00;100203.34;5059680;28;20067;-69
2021/09/10 03:53:00;;;;;;;11.63;10.43;;;;;;;18.53;100.00;100195.41;5073793;28;20039;-69
2021/09/10 03:55:44;;;;;;;12.65;10.98;;;;;;;18.52;100.00;100201.84;5074175;28;20051;-68
2021/09/10 03:58:27;;;;;;;13.93;10.77;;;;;;;18.47;100.00;100204.31;5074688;28;20047;-69
2021/09/10 04:01:11;;;;;;;13.18;10.48;;;;;;;18.44;100.00;100196.59;5073683;28;20094;-67
2021/09/10 04:03:55;;;;;;;19.58;11.23;;;;;;;18.41;100.00;100194.28;5074397;28;20106;-69
2021/09/10 04:06:39;;;;;;;;;;;;;;;18.34;100.00;100197.97;5075032;28;20051;-69
2021/09/10 04:09:23;;;;;;;12.80;10.93;;;;;;;18.30;100.00;100196.72;5073697;28;20287;-69
2021/09/10 04:12:07;;;;;;;11.80;10.60;;;;;;;18.25;100.00;100193.72;5074433;28;20079;-69
2021/09/10 04:14:51;;;;;;;12.30;11.00;;;;;;;18.22;100.00;100194.94;5073215;28;20421;-68
2021/09/10 04:17:35;;;;;;;15.25;11.95;;;;;;;18.20;100.00;100197.00;5073485;28;20075;-69
2021/09/10 04:20:19;;;;;;;12.57;11.27;;;;;;;18.14;100.00;100196.94;5059151;28;20098;-69
2021/09/10 04:23:03;;;;;;;14.98;12.48;;;;;;;18.09;100.00;100199.38;5072982;28;20047;-69
2021/09/10 04:25:47;;;;;;;15.63;12.05;;;;;;;18.06;100.00;100200.63;5058817;28;20052;-69
2021/09/10 04:28:31;;;;;;;12.73;11.43;;;;;;;17.99;100.00;100202.41;5073534;28;20078;-69
2021/09/10 04:31:17;;;;;;;13.77;11.25;;;;;;;17.94;100.00;100207.56;5073406;28;20402;-69
2021/09/10 04:34:01;;;;;;;14.40;10.73;;;;;;;17.89;100.00;100210.00;5058492;28;20055;-69
2021/09/10 04:36:44;;;;;;;12.82;11.45;;;;;;;17.86;100.00;100214.91;5074009;28;20047;-69
2021/09/10 04:39:28;;;;;;;16.98;12.02;;;;;;;17.80;100.00;100219.22;5073428;28;20043;-68
2021/09/10 04:42:12;;;;;;;13.43;11.73;;;;;;;17.76;100.00;100209.84;5073755;28;20056;-69
2021/09/10 04:44:56;;;;;;;14.55;12.00;;;;;;;17.76;100.00;100220.66;5058707;28;20185;-69
2021/09/10 04:47:40;;;;;;;15.75;12.32;;;;;;;17.74;100.00;100211.91;5074119;28;20071;-69
2021/09/10 04:50:24;;;;;;;15.30;12.40;;;;;;;17.77;100.00;100222.31;5073942;28;20082;-69
2021/09/10 04:53:08;;;;;;;18.33;12.32;;;;;;;17.77;100.00;100221.47;5072596;28;20085;-69
2021/09/10 04:55:52;;;;;;;;;;;;;;;17.77;100.00;100216.06;5072859;28;20058;-68
2021/09/10 04:58:36;;;;;;;13.67;11.33;;;;;;;17.75;100.00;100229.75;5086697;28;20282;-68
2021/09/10 05:01:20;;;;;;;14.30;11.88;;;;;;;17.74;100.00;100230.78;5073547;28;20125;-69
2021/09/10 05:04:04;;;;;;;14.90;11.60;;;;;;;17.73;100.00;100230.97;5058315;28;20052;-69
2021/09/10 05:06:48;;;;;;;12.18;10.45;;;;;;;17.74;100.00;100230.78;5058722;28;20086;-68
2021/09/10 05:09:32;;;;;;;14.02;10.82;;;;;;;17.78;100.00;100233.91;5072242;28;20063;-66
2021/09/10 05:12:16;;;;;;;13.48;11.68;;;;;;;17.79;100.00;100228.34;5072513;28;20043;-69
2021/09/10 05:15:00;;;;;;;16.33;12.82;;;;;;;17.81;100.00;100226.28;5072579;28;20136;-68
2021/09/10 05:17:44;;;;;;;17.40;12.93;;;;;;;17.83;100.00;100224.22;5072797;28;20055;-69
2021/09/10 05:20:28;;;;;;;15.82;12.32;;;;;;;17.87;100.00;100228.22;5072378;28;20052;-69
2021/09/10 05:23:12;;;;;;;14.27;11.45;;;;;;;17.90;100.00;100227.84;5072293;28;20174;-69
2021/09/10 05:25:57;;;;;;;15.68;13.30;;;;;;;17.95;100.00;100233.50;5058278;28;20087;-68
2021/09/10 05:28:41;;;;;;;14.35;12.05;;;;;;;17.93;100.00;100238.22;5072415;28;20597;-68
2021/09/10 05:31:26;;;;;;;14.32;12.60;;;;;;;17.90;100.00;100238.63;5073338;28;20090;-69
2021/09/10 05:34:11;;;;;;;13.73;12.25;;;;;;;17.90;100.00;100241.31;5072073;28;20098;-68
2021/09/10 05:36:55;;;;;;;17.55;11.93;;;;;;;17.94;100.00;100248.03;5072037;28;20564;-68
2021/09/10 05:39:39;;;;;;;19.42;12.95;;;;;;;17.99;100.00;100245.56;5072032;28;20179;-68
2021/09/10 05:42:23;;;;;;;14.82;11.85;;;;;;;18.04;100.00;100245.84;5071784;28;20068;-68
2021/09/10 05:45:07;;;;;;;;;;;;;;;18.11;100.00;100251.31;5057890;28;20055;-69
2021/09/10 05:47:51;;;;;;;14.70;12.02;;;;;;;18.21;100.00;100258.03;5071553;28;19931;-68
2021/09/10 05:50:36;;;;;;;16.35;12.30;;;;;;;18.32;100.00;100252.13;5074075;28;20047;-69
2021/09/10 05:53:20;;;;;;;17.13;12.07;;;;;;;18.43;100.00;100251.63;5075164;28;20570;-69
2021/09/10 05:56:04;;;;;;;16.90;12.07;;;;;;;18.46;100.00;100256.66;5076106;28;20051;-68
2021/09/10 05:58:48;;;;;;;13.80;12.00;;;;;;;18.55;100.00;100252.75;5076128;28;20071;-69
2021/09/10 06:01:31;;;;;;;15.88;11.85;;;;;;;18.60;100.00;100250.31;5076949;28;20051;-68
2021/09/10 06:04:15;;;;;;;17.08;11.38;;;;;;;18.70;100.00;100256.22;5061422;28;20544;-69
2021/09/10 06:07:00;;;;;;;13.25;11.43;;;;;;;18.76;100.00;100252.72;5075920;28;20105;-69
2021/09/10 06:09:43;;;;;;;10.60;9.50;;;;;;;18.83;100.00;100265.25;5075577;28;20043;-69
2021/09/10 06:12:28;;;;;;;18.25;11.43;;;;;;;18.88;100.00;100267.34;5075687;28;20044;-70
2021/09/10 06:15:13;;;;;;;14.07;11.48;;;;;;;18.98;100.00;100274.06;5061345;28;20520;-69
2021/09/10 06:17:57;;;;;;;15.00;11.77;;;;;;;18.97;100.00;100269.69;5075814;28;20051;-69
2021/09/10 06:20:41;;;;;;;16.42;11.40;;;;;;;19.11;100.00;100271.47;5061487;28;20067;-69
2021/09/10 06:23:25;;;;;;;14.68;11.25;;;;;;;19.04;99.33;100283.25;5075489;28;20098;-69
2021/09/10 06:26:10;;;;;;;13.68;11.10;;;;;;;19.06;100.00;100278.47;5076458;28;20465;-68
2021/09/10 06:28:54;;;;;;;16.90;11.25;;;;;;;19.23;99.26;100282.56;5075759;28;20509;-69
2021/09/10 06:31:39;;;;;;;14.45;11.15;;;;;;;19.31;99.56;100277.00;5075468;28;20090;-69
2021/09/10 06:34:25;;;;;;;20.17;11.60;;;;;;;19.40;98.38;100284.75;5060878;28;20055;-69
2021/09/10 06:37:09;;;;;;;15.55;11.02;;;;;;;19.61;97.39;100291.94;5076137;28;20541;-69
2021/09/10 06:39:53;;;;;;;14.23;11.73;;;;;;;19.74;97.40;100292.81;5075568;28;20564;-69
2021/09/10 06:42:37;;;;;;;13.18;11.27;;;;;;;19.78;95.17;100277.84;5061033;28;20055;-69
2021/09/10 06:45:22;;;;;;;13.13;10.75;;;;;;;19.86;95.38;100290.34;5074975;28;20055;-69
2021/09/10 06:48:06;;;;;;;11.43;10.13;;;;;;;20.00;95.05;100284.78;5074875;28;20051;-68
2021/09/10 06:50:50;;;;;;;12.65;10.63;;;;;;;19.98;94.80;100280.59;5075133;28;20048;-69
2021/09/10 06:53:35;;;;;;;;;;;;;;;20.07;94.33;100276.69;5061303;28;20518;-69
2021/09/10 06:56:19;;;;;;;;;;;;;;;20.14;92.50;100282.97;5089348;28;19959;-69
2021/09/10 06:59:03;;;;;;;17.93;10.67;;;;;;;20.27;92.14;100283.00;5074749;28;20397;-68
2021/09/10 07:01:47;;;;;;;11.43;10.23;;;;;;;20.39;89.89;100286.75;5074486;28;20040;-69
2021/09/10 07:04:32;;;;;;;12.98;10.07;;;;;;;20.40;89.51;100291.16;5060767;28;20098;-69
2021/09/10 07:07:16;;;;;;;13.57;10.48;;;;;;;20.43;88.25;100288.03;5074597;28;20067;-69
2021/09/10 07:10:00;;;;;;;11.20;10.00;;;;;;;20.43;87.36;100293.44;5074806;28;20098;-69
2021/09/10 07:12:44;;;;;;;10.27;9.18;;;;;;;20.57;88.14;100295.94;5075606;28;20071;-69
2021/09/10 07:15:28;;;;;;;12.68;9.60;;;;;;;20.75;87.32;100285.34;5074736;28;20430;-68
2021/09/10 07:18:12;;;;;;;16.33;10.13;;;;;;;20.84;85.91;100285.94;5060455;28;20051;-69
2021/09/10 07:20:56;;;;;;;;;;;;;;;20.95;84.67;100288.06;5074707;28;20055;-69
2021/09/10 07:23:40;;;;;;;14.27;8.83;;;;;;;20.95;83.66;100288.06;5088618;28;20393;-69
2021/09/10 07:26:25;;;;;;;;;;;;;;;20.86;83.41;100284.75;5075715;28;20051;-69
2021/09/10 07:29:09;;;;;;;13.23;9.05;;;;;;;20.90;84.22;100302.22;5088343;28;19978;-69
2021/09/10 07:31:53;;;;;;;11.68;9.60;;;;;;;20.96;83.05;100297.84;5074252;28;20063;-69
2021/09/10 07:34:37;;;;;;;14.77;9.73;;;;;;;20.76;82.85;100299.69;5074192;28;20418;-69
2021/09/10 07:37:27;;;;;;;11.40;9.38;;;;;;;20.83;82.81;100300.53;5075195;28;20526;-69
2021/09/10 07:40:11;;;;;;;13.20;9.70;;;;;;;21.04;82.63;100305.78;5074277;28;20106;-69
2021/09/10 07:42:55;;;;;;;11.30;9.13;;;;;;;20.94;83.55;100308.06;5059758;28;20047;-69
2021/09/10 07:45:39;;;;;;;13.02;9.40;;;;;;;20.89;83.02;100321.41;5074075;28;20174;-69
2021/09/10 07:48:23;;;;;;;14.73;10.32;;;;;;;20.61;85.00;100324.28;5073755;28;20063;-69
2021/09/10 07:51:07;;;;;;;13.60;9.82;;;;;;;20.74;85.78;100323.47;5073969;28;20125;-69
2021/09/10 07:53:51;;;;;;;11.32;9.80;;;;;;;20.70;85.06;100319.47;5074636;28;20078;-69
2021/09/10 07:56:35;;;;;;;14.05;9.77;;;;;;;20.81;85.82;100332.44;5074986;28;20059;-69
2021/09/10 07:59:19;;;;;;;12.93;9.50;;;;;;;21.07;84.58;100324.31;5074524;28;20121;-69
2021/09/10 08:02:03;;;;;;;11.48;9.07;;;;;;;21.17;83.15;100330.13;5073590;28;20072;-69
2021/09/10 08:04:46;;;;;;;12.00;9.00;;;;;;;21.16;83.85;100329.31;5074601;28;20047;-69
2021/09/10 08:07:31;;;;;;;11.13;9.02;;;;;;;21.31;82.36;100333.47;5073604;28;20043;-69
2021/09/10 08:10:17;;;;;;;10.98;8.20;;;;;;;21.58;82.12;100343.19;5073650;28;20070;-69
2021/09/10 08:13:01;;;;;;;11.77;8.98;;;;;;;21.92;80.19;100348.34;5072522;28;20094;-69
2021/09/10 08:15:45;;;;;;;9.88;8.15;;;;;;;21.98;75.99;100336.59;5087808;28;20090;-69
2021/09/10 08:18:29;;;;;;;11.00;8.52;;;;;;;22.22;76.01;100343.19;5073350;28;20067;-69
2021/09/10 08:21:13;;;;;;;8.32;7.43;;;;;;;22.38;74.79;100348.94;5073619;28;20055;-70
2021/09/10 08:23:57;;;;;;;9.95;7.88;;;;;;;22.16;74.46;100361.19;5072940;28;20089;-70
2021/09/10 08:26:40;;;;;;;12.38;8.35;;;;;;;22.16;77.50;100353.03;5059141;28;20093;-70
2021/09/10 08:29:24;;;;;;;;;;;;;;;21.94;77.10;100359.81;5059733;28;20052;-69
2021/09/10 08:32:08;;;;;;;10.13;7.87;;;;;;;21.94;76.61;100351.69;5072690;28;20339;-69
2021/09/10 08:34:53;;;;;;;10.75;8.70;;;;;;;21.79;77.06;100367.38;5073007;28;20147;-67
2021/09/10 08:37:37;;;;;;;10.82;8.63;;;;;;;21.81;77.41;100361.75;5073676;28;20051;-69
2021/09/10 08:40:21;;;;;;;11.57;7.90;;;;;;;21.91;78.18;100362.13;5073003;28;20047;-70
2021/09/10 08:43:05;;;;;;;11.10;8.32;;;;;;;21.86;78.28;100368.19;5072688;28;20097;-69
2021/09/10 08:45:49;;;;;;;12.95;7.60;;;;;;;21.94;78.57;100357.09;5072844;28;20143;-69
2021/09/10 08:48:33;;;;;;;12.20;8.65;;;;;;;22.07;79.93;100367.91;5058705;28;20110;-69
2021/09/10 08:51:18;;;;;;;12.57;8.30;;;;;;;21.72;82.81;100369.28;5073615;28;20094;-69
2021/09/10 08:54:02;;;;;;;12.57;8.15;;;;;;;21.66;84.70;100375.56;5073560;28;20525;-69
2021/09/10 08:56:46;;;;;;;;;;;;;;;21.13;84.79;100393.97;5073104;28;20055;-69
2021/09/10 08:59:30;;;;;;;9.85;8.75;;;;;;;20.65;93.72;100393.28;5072384;28;19919;-69
2021/09/10 09:02:14;;;;;;;13.18;9.52;;;;;;;20.14;100.00;100391.25;5072559;28;20514;-69
2021/09/10 09:04:58;;;;;;;12.88;10.27;;;;;;;19.91;100.00;100390.69;5058518;28;20450;-69
2021/09/10 09:07:42;;;;;;;14.13;11.70;;;;;;;19.83;100.00;100393.56;5073220;28;20075;-67
2021/09/10 09:10:26;;;;;;;17.05;12.70;;;;;;;19.73;100.00;100384.97;5072196;28;20102;-70
2021/09/10 09:13:13;;;;;;;18.60;13.75;;;;;;;19.99;100.00;100390.53;5073598;28;20047;-69
2021/09/10 09:16:24;;;;;;;17.55;13.13;;;;;;;20.22;100.00;100389.19;5072461;28;20047;-69
2021/09/10 09:19:08;;;;;;;16.55;13.07;;;;;;;20.37;100.00;100380.91;5072438;28;20043;-69
2021/09/10 09:21:57;;;;;;;23.20;12.57;;;;;;;20.22;100.00;100382.94;5072240;28;20389;-66
2021/09/10 09:24:41;;;;;;;15.63;11.50;;;;;;;20.16;100.00;100383.75;5057811;28;20055;-69
2021/09/10 09:27:26;;;;;;;14.77;13.07;;;;;;;20.01;100.00;100385.75;5072090;28;20048;-69
2021/09/10 09:30:10;;;;;;;16.05;12.95;;;;;;;20.07;100.00;100383.09;5072030;28;20048;-69
2021/09/10 09:32:55;;;;;;;16.70;12.95;;;;;;;20.02;100.00;100388.22;5181600;22;20040;-69
2021/09/10 09:35:40;;;;;;;18.65;13.95;;;;;;;20.25;100.00;100388.78;5031844;28;20151;-70
2021/09/10 09:38:27;;;;;;;16.15;12.23;;;;;;;20.16;100.00;100383.75;5032173;28;20043;-70
2021/09/10 09:41:16;;;;;;;16.92;13.35;;;;;;;20.14;100.00;100383.13;5032261;28;20459;-70
2021/09/10 09:44:10;;;;;;;19.67;13.23;;;;;;;20.36;100.00;100385.50;5020137;28;20512;-70
2021/09/10 09:47:01;;;;;;;18.23;13.27;;;;;;;20.61;100.00;100388.47;5012592;28;20048;-70
2021/09/10 09:49:45;;;;;;;13.45;11.93;;;;;;;20.85;100.00;100379.75;5012959;28;20048;-70
2021/09/10 09:52:30;;;;;;;16.33;11.60;;;;;;;21.31;100.00;100381.44;5012191;28;20546;-70
2021/09/10 09:55:14;;;;;;;13.75;11.00;;;;;;;21.47;100.00;100384.53;4998806;28;20048;-70
2021/09/10 09:58:02;;;;;;;12.52;9.98;;;;;;;22.23;100.00;100381.00;5012384;28;20057;-70
2021/09/10 10:00:47;;;;;;;13.27;10.73;;;;;;;22.79;97.24;100378.38;5012018;28;20099;-70
2021/09/10 10:03:31;;;;;;;10.90;9.80;;;;;;;23.62;87.55;100380.59;5012072;28;20092;-70
2021/09/10 10:06:26;;;;;;;10.98;9.25;;;;;;;24.10;88.90;100391.34;5012034;28;20108;-70
2021/09/10 10:09:14;;;;;;;9.98;8.80;;;;;;;23.54;87.32;100383.63;5012211;28;20061;-70
2021/09/10 10:12:00;;;;;;;11.00;9.02;;;;;;;23.01;87.28;100380.50;5013205;28;20053;-70
2021/09/10 10:14:44;;;;;;;11.25;9.07;;;;;;;22.67;83.48;100386.41;4998081;28;20423;-70
2021/09/10 10:17:31;;;;;;;12.43;8.95;;;;;;;22.62;87.15;100383.50;4998518;28;20100;-70
2021/09/10 10:20:47;;;;;;;10.77;9.32;;;;;;;22.82;84.79;100373.31;5013147;28;20052;-70
2021/09/10 10:23:45;;;;;;;10.95;9.00;;;;;;;22.71;86.15;100371.31;4998070;28;20048;-70
2021/09/10 10:26:36;;;;;;;11.50;8.82;;;;;;;22.74;84.33;100370.91;5026038;28;20112;-69
2021/09/10 10:29:20;;;;;;;13.10;9.90;;;;;;;22.68;81.79;100370.91;4998272;28;20044;-69
2021/09/10 10:32:06;;;;;;;10.55;9.50;;;;;;;22.83;81.95;100366.84;5012044;28;20108;-70
2021/09/10 10:35:14;;;;;;;10.60;9.27;;;;;;;22.79;81.44;100373.78;4997730;28;20108;-70
2021/09/10 10:38:01;;;;;;;13.93;9.48;;;;;;;23.07;81.37;100371.47;5015592;28;20065;-70
2021/09/10 10:40:55;;;;;;;15.25;9.52;;;;;;;23.23;78.80;100370.91;5016593;28;20091;-70
2021/09/10 10:43:39;;;;;;;12.60;9.18;;;;;;;23.11;80.79;100375.41;5001315;28;20044;-70
2021/09/10 10:46:28;;;;;;;13.05;9.35;;;;;;;22.87;80.36;100376.22;5015235;28;20129;-70
2021/09/10 10:49:30;;;;;;;9.73;8.73;;;;;;;22.95;84.56;100367.81;5015420;28;20045;-70
2021/09/10 10:52:23;;;;;;;11.02;9.07;;;;;;;22.81;84.54;100377.09;5015275;28;20613;-70
2021/09/10 10:55:16;;;;;;;11.27;8.25;;;;;;;22.44;84.66;100375.28;5016069;28;20084;-70
2021/09/10 10:58:27;;;;;;;10.57;9.05;;;;;;;22.12;87.03;100375.41;5016182;28;20053;-70
2021/09/10 11:01:11;;;;;;;9.20;8.07;;;;;;;22.47;87.79;100372.13;5001168;28;20040;-70
2021/09/10 11:03:55;;;;;;;15.88;8.32;;;;;;;22.60;82.39;100377.44;5000917;28;20104;-70
2021/09/10 11:06:40;;;;;;;9.50;8.50;;;;;;;22.80;82.14;100375.44;5016017;28;20104;-69
2021/09/10 11:09:24;;;;;;;10.73;8.18;;;;;;;22.83;80.34;100368.72;5014698;28;20065;-70
2021/09/10 11:12:08;;;;;;;11.57;8.20;;;;;;;23.02;80.10;100365.84;5015024;28;20123;-70
2021/09/10 11:14:52;;;;;;;10.02;7.88;;;;;;;23.47;77.49;100355.63;5014883;28;20495;-68
2021/09/10 11:17:36;;;;;;;8.68;7.70;;;;;;;23.63;76.14;100365.94;5014788;28;20052;-70
2021/09/10 11:20:25;;;;;;;9.75;8.30;;;;;;;23.63;72.16;100366.75;5000954;28;20107;-71
2021/09/10 11:23:14;;;;;;;9.32;8.00;;;;;;;23.79;73.71;100360.72;5014551;28;20092;-69
2021/09/10 11:25:59;;;;;;;9.07;8.18;;;;;;;24.34;73.37;100365.91;5000423;28;20108;-71
2021/09/10 11:28:43;;;;;;;9.77;8.02;;;;;;;25.05;69.07;100360.44;5015610;28;20052;-69
2021/09/10 11:31:27;;;;;;;8.30;7.38;;;;;;;25.54;66.25;100360.03;5014623;28;20072;-70
2021/09/10 11:34:31;;;;;;;11.50;7.80;;;;;;;25.57;63.35;100351.34;5014245;28;20049;-70
2021/09/10 11:37:32;;;;;;;8.88;7.88;;;;;;;25.52;63.95;100349.34;5014024;28;20468;-69
2021/09/10 11:40:27;;;;;;;8.48;7.68;;;;;;;25.49;65.08;100348.97;5014591;28;20108;-69
2021/09/10 11:43:22;;;;;;;9.05;8.13;;;;;;;25.00;66.74;100355.69;5014124;28;20411;-69
2021/09/10 11:46:10;;;;;;;8.32;7.53;;;;;;;25.50;65.21;100350.63;5014229;28;20057;-69
2021/09/10 11:48:54;;;;;;;8.02;7.22;;;;;;;25.72;64.05;100346.25;5014188;28;20049;-70
2021/09/10 11:51:41;;;;;;;8.73;7.70;;;;;;;25.43;64.74;100341.75;5014288;28;20463;-68
2021/09/10 11:54:27;;;;;;;8.68;7.78;;;;;;;24.99;65.09;100354.03;5014122;28;20447;-70
2021/09/10 11:57:18;;;;;;;10.52;8.25;;;;;;;24.83;66.61;100348.44;5000727;28;20128;-68
2021/09/10 12:00:05;;;;;;;11.40;8.30;;;;;;;25.26;67.38;100338.06;5015012;28;20115;-68
2021/09/10 12:02:55;;;;;;;9.63;8.18;;;;;;;25.39;66.97;100333.22;5014785;28;20072;-69
2021/09/10 12:05:39;;;;;;;9.15;8.20;;;;;;;25.00;68.30;100339.31;5000027;28;20504;-69
2021/09/10 12:08:23;;;;;;;9.40;8.35;;;;;;;25.53;67.93;100339.25;5014551;28;20100;-68
2021/09/10 12:11:20;;;;;;;;;;;;;;;25.68;66.42;100336.84;5014207;28;20464;-69
2021/09/10 12:14:14;;;;;;;8.43;7.63;;;;;;;26.09;65.03;100331.19;5013738;28;20024;-69
2021/09/10 12:17:10;;;;;;;;;;;;;;;25.83;65.61;100329.00;5000564;28;20081;-69
2021/09/10 12:20:14;;;;;;;10.88;8.10;;;;;;;26.68;62.93;100325.25;5013705;28;19920;-70
2021/09/10 12:23:00;;;;;;;;;;;;;;;27.05;61.29;100329.97;5014917;28;20168;-69
2021/09/10 12:25:59;;;;;;;9.10;7.72;;;;;;;26.55;62.98;100333.78;5013863;28;19925;-69
2021/09/10 12:28:47;;;;;;;8.75;7.88;;;;;;;26.92;62.76;100337.69;5013731;28;20072;-69
2021/09/10 12:31:31;;;;;;;8.93;8.07;;;;;;;26.89;61.80;100330.00;4999653;28;20126;-69
2021/09/10 12:34:15;;;;;;;8.35;7.55;;;;;;;26.23;64.31;100332.59;5012917;28;20045;-70
2021/09/10 12:36:59;;;;;;;;;;;;;;;25.49;64.98;100335.31;5014807;28;20111;-70
2021/09/10 12:39:43;;;;;;;9.90;8.90;;;;;;;24.89;69.69;100329.22;4999312;28;20016;-68